sensor_id;sensor_type;location;lat;lon;timestamp;P1;durP1;ratioP1;P2;durP2;ratioP2
50219;SDS011;36110;51.536;7.562;2022-08-19T00:01:33;2.65;;;2.45;;
50219;SDS011;36110;51.536;7.562;2022-08-19T00:04:02;2.80;;;2.60;;
50219;SDS011;36110;51.536;7.562;2022-08-19T00:06:29;3.03;;;2.45;;
50219;SDS011;36110;51.536;7.562;2022-08-19T00:08:55;2.88;;;2.67;;
50219;SDS011;36110;51.536;7.562;2022-08-19T00:11:21;3.20;;;2.90;;
50219;SDS011;36110;51.536;7.562;2022-08-19T00:13:46;2.63;;;2.42;;
50219;SDS011;36110;51.536;7.562;2022-08-19T00:16:13;2.63;;;2.42;;
50219;SDS011;36110;51.536;7.562;2022-08-19T00:18:39;2.90;;;2.70;;
50219;SDS011;36110;51.536;7.562;2022-08-19T00:21:04;3.20;;;2.90;;
50219;SDS011;36110;51.536;7.562;2022-08-19T00:23:32;2.90;;;2.70;;
50219;SDS011;36110;51.536;7.562;2022-08-19T00:25:59;4.43;;;4.03;;
50219;SDS011;36110;51.536;7.562;2022-08-19T00:28:25;6.72;;;4.35;;
50219;SDS011;36110;51.536;7.562;2022-08-19T00:30:50;3.55;;;2.88;;
50219;SDS011;36110;51.536;7.562;2022-08-19T00:33:16;3.08;;;2.78;;
50219;SDS011;36110;51.536;7.562;2022-08-19T00:35:42;2.83;;;2.60;;
50219;SDS011;36110;51.536;7.562;2022-08-19T00:38:07;4.28;;;2.60;;
50219;SDS011;36110;51.536;7.562;2022-08-19T00:40:32;2.70;;;2.50;;
50219;SDS011;36110;51.536;7.562;2022-08-19T00:42:58;2.88;;;2.67;;
50219;SDS011;36110;51.536;7.562;2022-08-19T00:45:24;2.47;;;2.35;;
50219;SDS011;36110;51.536;7.562;2022-08-19T00:47:51;2.63;;;2.42;;
50219;SDS011;36110;51.536;7.562;2022-08-19T00:50:18;2.85;;;2.65;;
50219;SDS011;36110;51.536;7.562;2022-08-19T00:52:45;2.90;;;2.70;;
50219;SDS011;36110;51.536;7.562;2022-08-19T00:55:18;2.60;;;2.40;;
50219;SDS011;36110;51.536;7.562;2022-08-19T00:57:49;2.83;;;2.60;;
50219;SDS011;36110;51.536;7.562;2022-08-19T01:00:19;2.73;;;2.37;;
50219;SDS011;36110;51.536;7.562;2022-08-19T01:02:45;2.97;;;2.78;;
50219;SDS011;36110;51.536;7.562;2022-08-19T01:05:12;2.85;;;2.65;;
50219;SDS011;36110;51.536;7.562;2022-08-19T01:07:40;2.80;;;2.60;;
50219;SDS011;36110;51.536;7.562;2022-08-19T01:10:07;2.80;;;2.60;;
50219;SDS011;36110;51.536;7.562;2022-08-19T01:12:35;3.00;;;2.80;;
50219;SDS011;36110;51.536;7.562;2022-08-19T01:15:01;3.15;;;2.65;;
50219;SDS011;36110;51.536;7.562;2022-08-19T01:17:26;2.70;;;2.50;;
50219;SDS011;36110;51.536;7.562;2022-08-19T01:19:51;4.75;;;3.17;;
50219;SDS011;36110;51.536;7.562;2022-08-19T01:24:48;2.90;;;2.70;;
50219;SDS011;36110;51.536;7.562;2022-08-19T01:27:14;2.50;;;2.30;;
50219;SDS011;36110;51.536;7.562;2022-08-19T01:29:40;3.08;;;2.30;;
50219;SDS011;36110;51.536;7.562;2022-08-19T01:32:07;3.13;;;2.45;;
50219;SDS011;36110;51.536;7.562;2022-08-19T01:34:34;2.60;;;2.40;;
50219;SDS011;36110;51.536;7.562;2022-08-19T01:37:00;2.40;;;2.20;;
50219;SDS011;36110;51.536;7.562;2022-08-19T01:39:26;3.00;;;2.65;;
50219;SDS011;36110;51.536;7.562;2022-08-19T01:41:53;3.28;;;3.08;;
50219;SDS011;36110;51.536;7.562;2022-08-19T01:44:19;2.50;;;2.30;;
50219;SDS011;36110;51.536;7.562;2022-08-19T01:46:48;2.78;;;2.58;;
50219;SDS011;36110;51.536;7.562;2022-08-19T01:49:16;2.25;;;2.15;;
50219;SDS011;36110;51.536;7.562;2022-08-19T01:51:43;2.58;;;2.38;;
50219;SDS011;36110;51.536;7.562;2022-08-19T01:54:09;2.53;;;2.33;;
50219;SDS011;36110;51.536;7.562;2022-08-19T01:56:35;2.38;;;2.25;;
50219;SDS011;36110;51.536;7.562;2022-08-19T01:59:03;2.63;;;2.42;;
50219;SDS011;36110;51.536;7.562;2022-08-19T02:01:30;2.45;;;2.25;;
50219;SDS011;36110;51.536;7.562;2022-08-19T02:03:59;2.15;;;2.05;;
50219;SDS011;36110;51.536;7.562;2022-08-19T02:06:25;2.60;;;2.40;;
50219;SDS011;36110;51.536;7.562;2022-08-19T02:08:51;2.50;;;2.33;;
50219;SDS011;36110;51.536;7.562;2022-08-19T02:11:20;2.60;;;2.45;;
50219;SDS011;36110;51.536;7.562;2022-08-19T02:13:47;2.65;;;2.45;;
50219;SDS011;36110;51.536;7.562;2022-08-19T02:16:14;2.60;;;2.40;;
50219;SDS011;36110;51.536;7.562;2022-08-19T02:18:40;2.45;;;2.25;;
50219;SDS011;36110;51.536;7.562;2022-08-19T02:21:05;2.47;;;2.38;;
50219;SDS011;36110;51.536;7.562;2022-08-19T02:23:31;3.53;;;2.40;;
50219;SDS011;36110;51.536;7.562;2022-08-19T02:25:56;2.28;;;2.17;;
50219;SDS011;36110;51.536;7.562;2022-08-19T02:28:21;2.65;;;2.45;;
50219;SDS011;36110;51.536;7.562;2022-08-19T02:30:47;2.75;;;2.55;;
50219;SDS011;36110;51.536;7.562;2022-08-19T02:33:13;2.70;;;2.50;;
50219;SDS011;36110;51.536;7.562;2022-08-19T02:35:41;2.20;;;2.10;;
50219;SDS011;36110;51.536;7.562;2022-08-19T02:38:08;2.40;;;2.20;;
50219;SDS011;36110;51.536;7.562;2022-08-19T02:40:53;2.25;;;2.15;;
50219;SDS011;36110;51.536;7.562;2022-08-19T02:43:25;2.42;;;2.22;;
50219;SDS011;36110;51.536;7.562;2022-08-19T02:45:52;2.33;;;2.20;;
50219;SDS011;36110;51.536;7.562;2022-08-19T02:48:18;2.20;;;2.10;;
50219;SDS011;36110;51.536;7.562;2022-08-19T02:50:45;2.38;;;2.28;;
50219;SDS011;36110;51.536;7.562;2022-08-19T02:53:11;2.50;;;2.30;;
50219;SDS011;36110;51.536;7.562;2022-08-19T02:55:42;2.78;;;2.10;;
50219;SDS011;36110;51.536;7.562;2022-08-19T02:58:11;2.38;;;2.17;;
50219;SDS011;36110;51.536;7.562;2022-08-19T03:00:40;2.20;;;2.10;;
50219;SDS011;36110;51.536;7.562;2022-08-19T03:03:14;2.78;;;2.58;;
50219;SDS011;36110;51.536;7.562;2022-08-19T03:05:40;2.25;;;2.00;;
50219;SDS011;36110;51.536;7.562;2022-08-19T03:08:06;2.60;;;2.40;;
50219;SDS011;36110;51.536;7.562;2022-08-19T03:10:32;2.35;;;2.20;;
50219;SDS011;36110;51.536;7.562;2022-08-19T03:12:58;2.30;;;2.20;;
50219;SDS011;36110;51.536;7.562;2022-08-19T03:15:23;2.40;;;2.20;;
50219;SDS011;36110;51.536;7.562;2022-08-19T03:17:48;2.40;;;2.20;;
50219;SDS011;36110;51.536;7.562;2022-08-19T03:20:14;2.20;;;2.10;;
50219;SDS011;36110;51.536;7.562;2022-08-19T03:22:39;2.25;;;2.13;;
50219;SDS011;36110;51.536;7.562;2022-08-19T03:25:04;2.08;;;1.98;;
50219;SDS011;36110;51.536;7.562;2022-08-19T03:27:30;2.40;;;2.30;;
50219;SDS011;36110;51.536;7.562;2022-08-19T03:29:55;2.25;;;2.15;;
50219;SDS011;36110;51.536;7.562;2022-08-19T03:32:21;2.58;;;2.38;;
50219;SDS011;36110;51.536;7.562;2022-08-19T03:34:46;2.10;;;2.00;;
50219;SDS011;36110;51.536;7.562;2022-08-19T03:37:12;2.47;;;2.28;;
50219;SDS011;36110;51.536;7.562;2022-08-19T03:39:38;2.60;;;2.40;;
50219;SDS011;36110;51.536;7.562;2022-08-19T03:42:04;2.28;;;2.17;;
50219;SDS011;36110;51.536;7.562;2022-08-19T03:44:30;2.65;;;2.08;;
50219;SDS011;36110;51.536;7.562;2022-08-19T03:46:58;2.30;;;2.20;;
50219;SDS011;36110;51.536;7.562;2022-08-19T03:49:26;2.20;;;2.10;;
50219;SDS011;36110;51.536;7.562;2022-08-19T03:51:53;2.17;;;2.08;;
50219;SDS011;36110;51.536;7.562;2022-08-19T03:54:20;2.40;;;2.20;;
50219;SDS011;36110;51.536;7.562;2022-08-19T03:56:48;2.25;;;2.15;;
50219;SDS011;36110;51.536;7.562;2022-08-19T03:59:17;2.20;;;2.10;;
50219;SDS011;36110;51.536;7.562;2022-08-19T04:01:50;2.45;;;2.25;;
50219;SDS011;36110;51.536;7.562;2022-08-19T04:04:16;2.50;;;2.30;;
50219;SDS011;36110;51.536;7.562;2022-08-19T04:06:42;2.10;;;2.00;;
50219;SDS011;36110;51.536;7.562;2022-08-19T04:09:08;2.20;;;2.10;;
50219;SDS011;36110;51.536;7.562;2022-08-19T04:11:43;2.38;;;1.95;;
50219;SDS011;36110;51.536;7.562;2022-08-19T04:14:15;2.00;;;1.90;;
50219;SDS011;36110;51.536;7.562;2022-08-19T04:16:42;2.28;;;2.05;;
50219;SDS011;36110;51.536;7.562;2022-08-19T04:19:09;2.40;;;2.20;;
50219;SDS011;36110;51.536;7.562;2022-08-19T04:21:34;4.57;;;4.18;;
50219;SDS011;36110;51.536;7.562;2022-08-19T04:24:00;2.00;;;1.90;;
50219;SDS011;36110;51.536;7.562;2022-08-19T04:26:26;2.50;;;2.30;;
50219;SDS011;36110;51.536;7.562;2022-08-19T04:28:53;2.20;;;2.10;;
50219;SDS011;36110;51.536;7.562;2022-08-19T04:31:20;2.20;;;2.10;;
50219;SDS011;36110;51.536;7.562;2022-08-19T04:33:50;2.53;;;2.33;;
50219;SDS011;36110;51.536;7.562;2022-08-19T04:36:21;3.08;;;2.05;;
50219;SDS011;36110;51.536;7.562;2022-08-19T04:38:48;3.78;;;2.78;;
50219;SDS011;36110;51.536;7.562;2022-08-19T04:41:14;2.25;;;2.15;;
50219;SDS011;36110;51.536;7.562;2022-08-19T04:43:58;3.10;;;2.10;;
50219;SDS011;36110;51.536;7.562;2022-08-19T04:46:24;2.33;;;2.22;;
50219;SDS011;36110;51.536;7.562;2022-08-19T04:48:50;3.08;;;2.80;;
50219;SDS011;36110;51.536;7.562;2022-08-19T04:51:16;3.53;;;3.28;;
50219;SDS011;36110;51.536;7.562;2022-08-19T04:53:42;3.03;;;2.80;;
50219;SDS011;36110;51.536;7.562;2022-08-19T04:56:11;2.70;;;2.50;;
50219;SDS011;36110;51.536;7.562;2022-08-19T04:58:40;2.28;;;2.10;;
50219;SDS011;36110;51.536;7.562;2022-08-19T05:01:07;2.15;;;2.05;;
50219;SDS011;36110;51.536;7.562;2022-08-19T05:03:35;2.47;;;2.28;;
50219;SDS011;36110;51.536;7.562;2022-08-19T05:06:05;2.35;;;2.15;;
50219;SDS011;36110;51.536;7.562;2022-08-19T05:08:35;2.17;;;2.08;;
50219;SDS011;36110;51.536;7.562;2022-08-19T05:11:06;2.20;;;2.10;;
50219;SDS011;36110;51.536;7.562;2022-08-19T05:16:02;4.32;;;2.97;;
50219;SDS011;36110;51.536;7.562;2022-08-19T05:18:27;2.60;;;2.40;;
50219;SDS011;36110;51.536;7.562;2022-08-19T05:21:12;2.42;;;2.22;;
50219;SDS011;36110;51.536;7.562;2022-08-19T05:23:58;2.25;;;2.15;;
50219;SDS011;36110;51.536;7.562;2022-08-19T05:26:24;2.40;;;2.20;;
50219;SDS011;36110;51.536;7.562;2022-08-19T05:28:51;2.85;;;2.20;;
50219;SDS011;36110;51.536;7.562;2022-08-19T05:31:17;2.40;;;2.20;;
50219;SDS011;36110;51.536;7.562;2022-08-19T05:33:42;2.10;;;2.00;;
50219;SDS011;36110;51.536;7.562;2022-08-19T05:36:07;2.60;;;2.40;;
50219;SDS011;36110;51.536;7.562;2022-08-19T05:38:34;4.15;;;2.50;;
50219;SDS011;36110;51.536;7.562;2022-08-19T05:41:00;30.92;;;10.02;;
50219;SDS011;36110;51.536;7.562;2022-08-19T05:43:35;42.72;;;8.60;;
50219;SDS011;36110;51.536;7.562;2022-08-19T05:46:02;21.77;;;9.95;;
50219;SDS011;36110;51.536;7.562;2022-08-19T05:48:29;39.45;;;7.38;;
50219;SDS011;36110;51.536;7.562;2022-08-19T05:50:55;14.38;;;10.38;;
50219;SDS011;36110;51.536;7.562;2022-08-19T05:53:20;14.05;;;9.73;;
50219;SDS011;36110;51.536;7.562;2022-08-19T05:55:45;18.00;;;8.93;;
50219;SDS011;36110;51.536;7.562;2022-08-19T05:58:11;16.90;;;11.27;;
50219;SDS011;36110;51.536;7.562;2022-08-19T06:00:37;18.25;;;11.13;;
50219;SDS011;36110;51.536;7.562;2022-08-19T06:03:02;14.75;;;9.77;;
50219;SDS011;36110;51.536;7.562;2022-08-19T06:05:29;12.30;;;8.98;;
50219;SDS011;36110;51.536;7.562;2022-08-19T06:07:55;13.77;;;9.00;;
50219;SDS011;36110;51.536;7.562;2022-08-19T06:10:21;12.70;;;8.77;;
50219;SDS011;36110;51.536;7.562;2022-08-19T06:12:47;13.25;;;8.68;;
50219;SDS011;36110;51.536;7.562;2022-08-19T06:15:13;14.10;;;7.78;;
50219;SDS011;36110;51.536;7.562;2022-08-19T06:17:38;9.88;;;7.72;;
50219;SDS011;36110;51.536;7.562;2022-08-19T06:20:05;10.85;;;7.22;;
50219;SDS011;36110;51.536;7.562;2022-08-19T06:22:31;9.70;;;7.03;;
50219;SDS011;36110;51.536;7.562;2022-08-19T06:25:03;9.45;;;6.95;;
50219;SDS011;36110;51.536;7.562;2022-08-19T06:27:28;10.20;;;7.72;;
50219;SDS011;36110;51.536;7.562;2022-08-19T06:29:55;8.75;;;6.70;;
50219;SDS011;36110;51.536;7.562;2022-08-19T06:32:21;10.93;;;6.70;;
50219;SDS011;36110;51.536;7.562;2022-08-19T06:34:46;9.05;;;6.90;;
50219;SDS011;36110;51.536;7.562;2022-08-19T06:37:11;12.13;;;7.53;;
50219;SDS011;36110;51.536;7.562;2022-08-19T06:39:37;9.52;;;6.43;;
50219;SDS011;36110;51.536;7.562;2022-08-19T06:42:05;8.52;;;5.97;;
50219;SDS011;36110;51.536;7.562;2022-08-19T06:44:33;8.13;;;6.32;;
50219;SDS011;36110;51.536;7.562;2022-08-19T06:47:02;10.77;;;5.63;;
50219;SDS011;36110;51.536;7.562;2022-08-19T06:49:28;8.98;;;6.30;;
50219;SDS011;36110;51.536;7.562;2022-08-19T06:51:55;19.90;;;12.90;;
50219;SDS011;36110;51.536;7.562;2022-08-19T06:54:22;10.73;;;7.18;;
50219;SDS011;36110;51.536;7.562;2022-08-19T06:56:48;7.72;;;5.53;;
50219;SDS011;36110;51.536;7.562;2022-08-19T06:59:14;7.25;;;5.85;;
50219;SDS011;36110;51.536;7.562;2022-08-19T07:01:46;8.48;;;5.47;;
50219;SDS011;36110;51.536;7.562;2022-08-19T07:04:13;6.05;;;5.10;;
50219;SDS011;36110;51.536;7.562;2022-08-19T07:06:40;9.38;;;5.88;;
50219;SDS011;36110;51.536;7.562;2022-08-19T07:09:06;9.85;;;6.20;;
50219;SDS011;36110;51.536;7.562;2022-08-19T07:11:33;11.88;;;8.93;;
50219;SDS011;36110;51.536;7.562;2022-08-19T07:13:59;6.85;;;5.32;;
50219;SDS011;36110;51.536;7.562;2022-08-19T07:16:24;5.95;;;5.35;;
50219;SDS011;36110;51.536;7.562;2022-08-19T07:18:50;14.70;;;10.32;;
50219;SDS011;36110;51.536;7.562;2022-08-19T07:21:17;6.78;;;5.53;;
50219;SDS011;36110;51.536;7.562;2022-08-19T07:23:44;6.90;;;5.28;;
50219;SDS011;36110;51.536;7.562;2022-08-19T07:26:11;7.68;;;5.20;;
50219;SDS011;36110;51.536;7.562;2022-08-19T07:28:46;6.78;;;5.85;;
50219;SDS011;36110;51.536;7.562;2022-08-19T07:31:14;8.75;;;6.47;;
50219;SDS011;36110;51.536;7.562;2022-08-19T07:33:43;8.57;;;6.35;;
50219;SDS011;36110;51.536;7.562;2022-08-19T07:36:09;5.13;;;4.60;;
50219;SDS011;36110;51.536;7.562;2022-08-19T07:38:40;7.40;;;6.03;;
50219;SDS011;36110;51.536;7.562;2022-08-19T07:41:08;8.05;;;6.40;;
50219;SDS011;36110;51.536;7.562;2022-08-19T07:43:35;9.60;;;6.53;;
50219;SDS011;36110;51.536;7.562;2022-08-19T07:46:00;5.40;;;4.90;;
50219;SDS011;36110;51.536;7.562;2022-08-19T07:48:26;5.80;;;5.03;;
50219;SDS011;36110;51.536;7.562;2022-08-19T07:50:53;11.90;;;7.13;;
50219;SDS011;36110;51.536;7.562;2022-08-19T07:53:19;5.95;;;5.32;;
50219;SDS011;36110;51.536;7.562;2022-08-19T07:55:46;23.23;;;17.92;;
50219;SDS011;36110;51.536;7.562;2022-08-19T07:58:12;13.50;;;11.93;;
50219;SDS011;36110;51.536;7.562;2022-08-19T08:00:40;6.07;;;5.03;;
50219;SDS011;36110;51.536;7.562;2022-08-19T08:03:06;5.80;;;4.95;;
50219;SDS011;36110;51.536;7.562;2022-08-19T08:05:33;7.05;;;5.10;;
50219;SDS011;36110;51.536;7.562;2022-08-19T08:08:17;5.90;;;5.30;;
50219;SDS011;36110;51.536;7.562;2022-08-19T08:11:01;8.50;;;7.22;;
50219;SDS011;36110;51.536;7.562;2022-08-19T08:13:27;11.65;;;9.05;;
50219;SDS011;36110;51.536;7.562;2022-08-19T08:15:52;9.68;;;8.45;;
50219;SDS011;36110;51.536;7.562;2022-08-19T08:18:18;5.07;;;4.60;;
50219;SDS011;36110;51.536;7.562;2022-08-19T08:20:45;9.23;;;5.45;;
50219;SDS011;36110;51.536;7.562;2022-08-19T08:23:11;5.43;;;4.93;;
50219;SDS011;36110;51.536;7.562;2022-08-19T08:25:50;6.07;;;4.90;;
50219;SDS011;36110;51.536;7.562;2022-08-19T08:28:17;6.97;;;4.70;;
50219;SDS011;36110;51.536;7.562;2022-08-19T08:30:43;5.57;;;4.97;;
50219;SDS011;36110;51.536;7.562;2022-08-19T08:33:12;10.55;;;9.20;;
50219;SDS011;36110;51.536;7.562;2022-08-19T08:35:38;5.55;;;5.00;;
50219;SDS011;36110;51.536;7.562;2022-08-19T08:38:06;22.95;;;13.93;;
50219;SDS011;36110;51.536;7.562;2022-08-19T08:43:07;6.00;;;4.88;;
50219;SDS011;36110;51.536;7.562;2022-08-19T08:45:38;5.25;;;4.75;;
50219;SDS011;36110;51.536;7.562;2022-08-19T08:48:22;6.50;;;5.35;;
50219;SDS011;36110;51.536;7.562;2022-08-19T08:50:52;21.83;;;12.10;;
50219;SDS011;36110;51.536;7.562;2022-08-19T08:53:19;16.15;;;11.38;;
50219;SDS011;36110;51.536;7.562;2022-08-19T08:55:45;10.10;;;7.07;;
50219;SDS011;36110;51.536;7.562;2022-08-19T08:58:12;5.53;;;5.03;;
50219;SDS011;36110;51.536;7.562;2022-08-19T09:00:43;4.78;;;4.30;;
50219;SDS011;36110;51.536;7.562;2022-08-19T09:03:15;6.85;;;4.70;;
50219;SDS011;36110;51.536;7.562;2022-08-19T09:05:49;4.75;;;4.15;;
50219;SDS011;36110;51.536;7.562;2022-08-19T09:10:49;13.60;;;10.75;;
50219;SDS011;36110;51.536;7.562;2022-08-19T09:16:31;4.95;;;4.00;;
50219;SDS011;36110;51.536;7.562;2022-08-19T09:18:58;9.88;;;8.35;;
50219;SDS011;36110;51.536;7.562;2022-08-19T09:21:26;4.70;;;4.20;;
50219;SDS011;36110;51.536;7.562;2022-08-19T09:23:52;12.60;;;9.90;;
50219;SDS011;36110;51.536;7.562;2022-08-19T09:26:19;6.10;;;4.95;;
50219;SDS011;36110;51.536;7.562;2022-08-19T09:28:46;5.07;;;4.60;;
50219;SDS011;36110;51.536;7.562;2022-08-19T09:31:19;6.28;;;5.65;;
50219;SDS011;36110;51.536;7.562;2022-08-19T09:33:46;13.38;;;7.55;;
50219;SDS011;36110;51.536;7.562;2022-08-19T09:36:14;16.02;;;9.15;;
50219;SDS011;36110;51.536;7.562;2022-08-19T09:38:40;11.55;;;9.40;;
50219;SDS011;36110;51.536;7.562;2022-08-19T09:41:07;6.55;;;5.85;;
50219;SDS011;36110;51.536;7.562;2022-08-19T09:43:34;6.03;;;4.72;;
50219;SDS011;36110;51.536;7.562;2022-08-19T09:46:02;4.68;;;4.28;;
50219;SDS011;36110;51.536;7.562;2022-08-19T09:48:30;4.30;;;3.90;;
50219;SDS011;36110;51.536;7.562;2022-08-19T09:51:01;4.30;;;3.90;;
50219;SDS011;36110;51.536;7.562;2022-08-19T09:53:34;6.32;;;5.72;;
50219;SDS011;36110;51.536;7.562;2022-08-19T09:56:00;4.18;;;3.85;;
50219;SDS011;36110;51.536;7.562;2022-08-19T09:58:26;14.38;;;8.75;;
50219;SDS011;36110;51.536;7.562;2022-08-19T10:00:56;7.93;;;6.93;;
50219;SDS011;36110;51.536;7.562;2022-08-19T10:03:23;6.05;;;4.82;;
50219;SDS011;36110;51.536;7.562;2022-08-19T10:05:49;4.20;;;3.83;;
50219;SDS011;36110;51.536;7.562;2022-08-19T10:08:16;12.10;;;8.75;;
50219;SDS011;36110;51.536;7.562;2022-08-19T10:10:43;8.45;;;6.72;;
50219;SDS011;36110;51.536;7.562;2022-08-19T10:13:09;4.90;;;4.47;;
50219;SDS011;36110;51.536;7.562;2022-08-19T10:15:34;6.78;;;5.70;;
50219;SDS011;36110;51.536;7.562;2022-08-19T10:18:00;5.85;;;3.63;;
50219;SDS011;36110;51.536;7.562;2022-08-19T10:20:25;5.60;;;3.60;;
50219;SDS011;36110;51.536;7.562;2022-08-19T10:22:50;3.72;;;3.35;;
50219;SDS011;36110;51.536;7.562;2022-08-19T10:25:16;5.47;;;4.95;;
50219;SDS011;36110;51.536;7.562;2022-08-19T10:27:42;4.72;;;3.70;;
50219;SDS011;36110;51.536;7.562;2022-08-19T10:30:07;4.00;;;3.70;;
50219;SDS011;36110;51.536;7.562;2022-08-19T10:32:34;3.95;;;3.55;;
50219;SDS011;36110;51.536;7.562;2022-08-19T10:34:59;5.57;;;4.55;;
50219;SDS011;36110;51.536;7.562;2022-08-19T10:37:25;3.90;;;3.60;;
50219;SDS011;36110;51.536;7.562;2022-08-19T10:39:50;3.83;;;3.53;;
50219;SDS011;36110;51.536;7.562;2022-08-19T10:42:16;6.10;;;5.50;;
50219;SDS011;36110;51.536;7.562;2022-08-19T10:44:43;4.07;;;3.78;;
50219;SDS011;36110;51.536;7.562;2022-08-19T10:47:09;4.20;;;3.65;;
50219;SDS011;36110;51.536;7.562;2022-08-19T10:49:34;4.45;;;4.00;;
50219;SDS011;36110;51.536;7.562;2022-08-19T10:55:01;3.38;;;3.08;;
50219;SDS011;36110;51.536;7.562;2022-08-19T10:57:45;7.00;;;4.20;;
50219;SDS011;36110;51.536;7.562;2022-08-19T11:00:11;3.70;;;3.40;;
50219;SDS011;36110;51.536;7.562;2022-08-19T11:02:37;10.45;;;4.50;;
50219;SDS011;36110;51.536;7.562;2022-08-19T11:05:03;4.05;;;3.65;;
50219;SDS011;36110;51.536;7.562;2022-08-19T11:07:28;5.03;;;4.45;;
50219;SDS011;36110;51.536;7.562;2022-08-19T11:09:54;5.35;;;4.07;;
50219;SDS011;36110;51.536;7.562;2022-08-19T11:12:19;5.63;;;3.55;;
50219;SDS011;36110;51.536;7.562;2022-08-19T11:14:44;4.78;;;4.05;;
50219;SDS011;36110;51.536;7.562;2022-08-19T11:17:10;4.10;;;3.10;;
50219;SDS011;36110;51.536;7.562;2022-08-19T11:19:38;4.65;;;3.83;;
50219;SDS011;36110;51.536;7.562;2022-08-19T11:22:06;3.25;;;2.95;;
50219;SDS011;36110;51.536;7.562;2022-08-19T11:24:33;4.03;;;3.72;;
50219;SDS011;36110;51.536;7.562;2022-08-19T11:27:03;3.70;;;3.40;;
50219;SDS011;36110;51.536;7.562;2022-08-19T11:29:34;7.53;;;4.65;;
50219;SDS011;36110;51.536;7.562;2022-08-19T11:32:03;6.00;;;4.65;;
50219;SDS011;36110;51.536;7.562;2022-08-19T11:34:30;8.25;;;7.47;;
50219;SDS011;36110;51.536;7.562;2022-08-19T11:36:56;7.22;;;6.03;;
50219;SDS011;36110;51.536;7.562;2022-08-19T11:39:24;9.02;;;6.47;;
50219;SDS011;36110;51.536;7.562;2022-08-19T11:41:49;7.40;;;6.57;;
50219;SDS011;36110;51.536;7.562;2022-08-19T11:44:15;7.00;;;5.38;;
50219;SDS011;36110;51.536;7.562;2022-08-19T11:46:41;7.25;;;5.07;;
50219;SDS011;36110;51.536;7.562;2022-08-19T11:49:10;7.50;;;5.45;;
50219;SDS011;36110;51.536;7.562;2022-08-19T11:51:36;6.75;;;5.18;;
50219;SDS011;36110;51.536;7.562;2022-08-19T11:54:02;7.15;;;4.50;;
50219;SDS011;36110;51.536;7.562;2022-08-19T11:56:29;6.95;;;6.15;;
50219;SDS011;36110;51.536;7.562;2022-08-19T11:58:55;8.00;;;7.00;;
50219;SDS011;36110;51.536;7.562;2022-08-19T12:01:22;5.47;;;4.82;;
50219;SDS011;36110;51.536;7.562;2022-08-19T12:03:49;5.22;;;4.10;;
50219;SDS011;36110;51.536;7.562;2022-08-19T12:06:18;6.00;;;3.80;;
50219;SDS011;36110;51.536;7.562;2022-08-19T12:08:48;5.63;;;5.10;;
50219;SDS011;36110;51.536;7.562;2022-08-19T12:11:14;8.73;;;6.53;;
50219;SDS011;36110;51.536;7.562;2022-08-19T12:13:39;8.70;;;6.20;;
50219;SDS011;36110;51.536;7.562;2022-08-19T12:16:21;10.30;;;5.47;;
50219;SDS011;36110;51.536;7.562;2022-08-19T12:18:51;7.40;;;5.43;;
50219;SDS011;36110;51.536;7.562;2022-08-19T12:21:19;6.97;;;4.40;;
50219;SDS011;36110;51.536;7.562;2022-08-19T12:23:46;5.55;;;4.45;;
50219;SDS011;36110;51.536;7.562;2022-08-19T12:26:13;5.00;;;3.92;;
50219;SDS011;36110;51.536;7.562;2022-08-19T12:28:38;4.68;;;4.30;;
50219;SDS011;36110;51.536;7.562;2022-08-19T12:31:04;4.07;;;3.63;;
50219;SDS011;36110;51.536;7.562;2022-08-19T12:33:30;5.00;;;3.65;;
50219;SDS011;36110;51.536;7.562;2022-08-19T12:36:00;7.18;;;5.47;;
50219;SDS011;36110;51.536;7.562;2022-08-19T12:38:27;7.97;;;4.43;;
50219;SDS011;36110;51.536;7.562;2022-08-19T12:40:52;4.15;;;3.75;;
50219;SDS011;36110;51.536;7.562;2022-08-19T12:43:18;4.78;;;3.95;;
50219;SDS011;36110;51.536;7.562;2022-08-19T12:45:45;4.45;;;3.63;;
50219;SDS011;36110;51.536;7.562;2022-08-19T12:48:10;8.35;;;6.43;;
50219;SDS011;36110;51.536;7.562;2022-08-19T12:50:38;3.70;;;3.40;;
50219;SDS011;36110;51.536;7.562;2022-08-19T12:53:04;3.60;;;3.30;;
50219;SDS011;36110;51.536;7.562;2022-08-19T12:55:30;7.45;;;6.68;;
50219;SDS011;36110;51.536;7.562;2022-08-19T12:57:55;5.45;;;4.95;;
50219;SDS011;36110;51.536;7.562;2022-08-19T13:00:21;5.82;;;3.05;;
50219;SDS011;36110;51.536;7.562;2022-08-19T13:02:48;3.80;;;3.50;;
50219;SDS011;36110;51.536;7.562;2022-08-19T13:05:16;3.53;;;3.20;;
50219;SDS011;36110;51.536;7.562;2022-08-19T13:07:50;3.38;;;3.17;;
50219;SDS011;36110;51.536;7.562;2022-08-19T13:10:18;3.25;;;3.00;;
50219;SDS011;36110;51.536;7.562;2022-08-19T13:12:44;7.45;;;6.32;;
50219;SDS011;36110;51.536;7.562;2022-08-19T13:15:12;3.50;;;3.20;;
50219;SDS011;36110;51.536;7.562;2022-08-19T13:17:38;4.80;;;4.22;;
50219;SDS011;36110;51.536;7.562;2022-08-19T13:20:05;5.20;;;4.75;;
50219;SDS011;36110;51.536;7.562;2022-08-19T13:22:32;5.72;;;4.88;;
50219;SDS011;36110;51.536;7.562;2022-08-19T13:24:58;9.00;;;6.90;;
50219;SDS011;36110;51.536;7.562;2022-08-19T13:27:23;3.03;;;2.83;;
50219;SDS011;36110;51.536;7.562;2022-08-19T13:29:49;3.20;;;3.00;;
50219;SDS011;36110;51.536;7.562;2022-08-19T13:32:33;4.43;;;4.03;;
50219;SDS011;36110;51.536;7.562;2022-08-19T13:35:17;5.93;;;5.00;;
50219;SDS011;36110;51.536;7.562;2022-08-19T13:37:43;10.32;;;8.43;;
50219;SDS011;36110;51.536;7.562;2022-08-19T13:42:40;5.85;;;5.25;;
50219;SDS011;36110;51.536;7.562;2022-08-19T13:45:07;6.82;;;6.13;;
50219;SDS011;36110;51.536;7.562;2022-08-19T13:47:33;6.97;;;6.28;;
50219;SDS011;36110;51.536;7.562;2022-08-19T13:49:59;6.25;;;5.05;;
50219;SDS011;36110;51.536;7.562;2022-08-19T13:52:25;6.63;;;5.72;;
50219;SDS011;36110;51.536;7.562;2022-08-19T13:54:50;7.97;;;6.03;;
50219;SDS011;36110;51.536;7.562;2022-08-19T13:57:16;6.38;;;5.78;;
50219;SDS011;36110;51.536;7.562;2022-08-19T13:59:41;4.38;;;4.07;;
50219;SDS011;36110;51.536;7.562;2022-08-19T14:02:06;6.03;;;5.43;;
50219;SDS011;36110;51.536;7.562;2022-08-19T14:04:31;6.15;;;4.80;;
50219;SDS011;36110;51.536;7.562;2022-08-19T14:06:57;4.57;;;4.13;;
50219;SDS011;36110;51.536;7.562;2022-08-19T14:09:22;4.45;;;4.05;;
50219;SDS011;36110;51.536;7.562;2022-08-19T14:11:47;6.03;;;3.92;;
50219;SDS011;36110;51.536;7.562;2022-08-19T14:14:15;4.20;;;3.90;;
50219;SDS011;36110;51.536;7.562;2022-08-19T14:16:40;8.02;;;5.85;;
50219;SDS011;36110;51.536;7.562;2022-08-19T14:19:05;5.75;;;5.25;;
50219;SDS011;36110;51.536;7.562;2022-08-19T14:21:32;6.72;;;5.97;;
50219;SDS011;36110;51.536;7.562;2022-08-19T14:23:58;5.25;;;4.63;;
50219;SDS011;36110;51.536;7.562;2022-08-19T14:26:23;5.30;;;4.80;;
50219;SDS011;36110;51.536;7.562;2022-08-19T14:28:49;11.55;;;5.93;;
50219;SDS011;36110;51.536;7.562;2022-08-19T14:31:15;6.40;;;5.70;;
50219;SDS011;36110;51.536;7.562;2022-08-19T14:33:44;5.10;;;4.50;;
50219;SDS011;36110;51.536;7.562;2022-08-19T14:36:10;4.13;;;3.83;;
50219;SDS011;36110;51.536;7.562;2022-08-19T14:38:36;4.32;;;4.00;;
50219;SDS011;36110;51.536;7.562;2022-08-19T14:41:12;6.22;;;4.63;;
50219;SDS011;36110;51.536;7.562;2022-08-19T14:43:41;4.80;;;4.45;;
50219;SDS011;36110;51.536;7.562;2022-08-19T14:46:07;4.43;;;3.70;;
50219;SDS011;36110;51.536;7.562;2022-08-19T14:48:33;4.95;;;4.45;;
50219;SDS011;36110;51.536;7.562;2022-08-19T14:50:58;10.70;;;5.20;;
50219;SDS011;36110;51.536;7.562;2022-08-19T14:53:23;3.80;;;3.50;;
50219;SDS011;36110;51.536;7.562;2022-08-19T14:55:49;4.32;;;3.97;;
50219;SDS011;36110;51.536;7.562;2022-08-19T14:58:14;3.88;;;3.58;;
50219;SDS011;36110;51.536;7.562;2022-08-19T15:00:40;3.70;;;3.40;;
50219;SDS011;36110;51.536;7.562;2022-08-19T15:03:05;4.47;;;3.83;;
50219;SDS011;36110;51.536;7.562;2022-08-19T15:05:30;3.60;;;3.30;;